Charles City, Virginia
Current Conditions -  °F | °C
As of 2:35 PM on Tuesday 21 Oct 2014 (Local Time) from KW96 Reporting Station
Clear Clear  
Wind Chill: 71°   Ceiling: Unl
Heat Index: 71°   Visibility: 10mi
Dew Point: 49°   Wind: 6mph
Humidity: 47%   Direction: 230°SW
Pressure: 29.81"   Gusts: NA
Location:  37.34°N, 77.07°W
Report Text: KW96 211835Z AUTO 23005KT 10SM CLR 22/10 A2981 RMK AO1 T02150096
Loading
Personal Weather Stations






























Interactive Weather Map
Tropical Storm Tracking
New forecast layout! Learn more

10-Day Weather Forecast

Advertisements
Track Severe Weather on mobile